Terminal Aerodrome Forecast
Issued by NWS Rapid City, SD

Home | Current Version | Previous Version | Text Only | Print | Product List | Glossary On
Versions: 1 2 3 4 5 6 7 8 9 10 11 12 13 14 15 16
550
FTUS43 KUNR 141602 AAC
TAFRAP
TAF AMD
KRAP 141602Z 1416/1512 34028G40KT P6SM -SHRA BKN025 OVC040
     FM141900 34028G40KT P6SM SCT030 BKN100
     FM150100 30010KT P6SM SKC=

USA.gov is the U.S. government's official web portal to all federal, state and local government web resources and services.